Crestview, FL

12:22 PM CDT on August 23, 2014 (GMT -0500)
Sikes | Change Station
CLOSE
Current Station
Airport
Location: Crestview,
Elevation: 213 ft
Nearby Weather Stations
Active Advisory: Heat Advisory

Elev 213 ft 30.78 °N, 86.52 °W | Updated 29 minutes ago

Mostly Cloudy
Mostly Cloudy
95 °F
Feels Like 103 °F
N
5
Wind Variable Wind from NE

Today
High -- | Low -- °F
--% Chance of Precip.
Yesterday
High -- | Low -- °F
Precip. -- in
6:17 AM 7:19 PM
Waning Crescent, 3% visible
Pressure 30.00 in
Visibility 10.0 miles
Clouds Scattered Clouds 5000 ft
Mostly Cloudy 6500 ft
Heat Index 103 °F
Dew Point 72 °F
Humidity 47%
Rainfall 0.00 in
Snow Depth Not available.
UV 6 out of 12
Pollen 7.80 out of 12
PM2.5 Moderate
Flu Activity Not available.
METAR KCEW 231653Z AUTO 04004KT 10SM SCT050 BKN065 35/22 A3001 RMK AO2 SLP157 T03500222

More Conditions Fewer Conditions

Pressure 30.00 in
Visibility 10.0 miles
Clouds Scattered Clouds 5000 ft
Mostly Cloudy 6500 ft
Heat Index 103 °F
Dew Point 72 °F
Humidity 47%
Rainfall 0.00 in
Snow Depth Not available.
UV 6 out of 12
Pollen 7.80 out of 12
PM2.5 Moderate
Flu Activity Not available.
METAR KCEW 231653Z AUTO 04004KT 10SM SCT050 BKN065 35/22 A3001 RMK AO2 SLP157 T03500222

More Conditions Fewer Conditions

10-Day Weather Forecast

Almanac

Astronomy

Aug. 23, 2014 Rise Set
Actual Time 6:17 AM CDT 7:19 PM CDT
Civil Twilight 5:52 AM CDT 7:44 PM CDT
Nautical Twilight 5:22 AM CDT 8:14 PM CDT
Astronomical Twilight 4:52 AM CDT 8:44 PM CDT
Moon 4:35 AM CDT 6:03 PM CDT
Length of Visible Light 13h 52m
Length of Day
13h 02m
Tomorrow will be 1m 42s shorter.
Waning Crescent, 3% of the Moon is Illuminated
Today
Waning Crescent
Aug 25
New
Sep 2
First Quarter
Sep 8
Full
Sep 15
Last Quarter

Today's Extremes

State Highs State Lows

Community

WunderPhotos

Upload Photos

1,746,534 photos uploaded!

WunderBlogs® & News

By Dr. Jeff Masters
Director of Meteorology, Weather Underground
By Kari Strenfel
Meteorologist, Weather Underground
By Christopher C. Burt
Weather Historian, Weather Underground
August 23, 2014
August 23, 2014
August 23, 2014

Nearby

Air Quality

  Air Quality AQ Index Pollutant
Yesterday Moderate
PM2.5
Yesterday Good
OZONE
Current Moderate
PM2.5
Saturday Moderate
PM2.5
Saturday Good
OZONE
Sunday Moderate
PM2.5
Sunday Good
OZONE
Monday Moderate
PM2.5
Monday Good
OZONE

Snow Depth

Station Depth Elevation
No new snow has been reported.

Earthquake Activity

City Distance Mag. Time & Date
No recent earthquake activity has been reported nearby.
Minimum magnitude displayed is 2.5.

Coastal Water Temperatures

Place Temperature
No Stations Reporting

Nearby Weather Stations